createdAt,value
2019-03-27T00:02:43.489Z,22.83
2019-03-27T00:14:24.806Z,22.17
2019-03-27T00:19:31.157Z,20.07
2019-03-27T00:24:36.552Z,22.50
2019-03-27T00:29:43.271Z,18.90
2019-03-27T00:34:49.098Z,22.40
2019-03-27T00:39:54.142Z,23.83
2019-03-27T00:45:02.022Z,21.47
2019-03-27T00:50:10.317Z,18.90
2019-03-27T00:55:15.707Z,24.90
2019-03-27T01:00:38.766Z,22.33
2019-03-27T01:05:44.153Z,26.73
2019-03-27T01:10:52.201Z,19.00
2019-03-27T01:15:59.927Z,25.77
2019-03-27T01:21:05.136Z,26.07
2019-03-27T01:26:10.200Z,20.53
2019-03-27T01:31:15.500Z,24.13
2019-03-27T01:36:20.776Z,26.07
2019-03-27T01:41:26.253Z,27.40
2019-03-27T01:46:31.594Z,21.57
2019-03-27T01:51:36.664Z,24.77
2019-03-27T01:56:42.013Z,20.60
2019-03-27T02:01:47.869Z,27.90
2019-03-27T02:06:53.165Z,25.53
2019-03-27T02:11:58.648Z,27.13
2019-03-27T02:17:03.888Z,22.93
2019-03-27T02:22:12.205Z,31.17
2019-03-27T02:27:20.026Z,22.97
2019-03-27T02:32:28.438Z,31.70
2019-03-27T02:37:34.571Z,23.23
2019-03-27T02:42:39.635Z,23.75
2019-03-27T02:47:45.226Z,23.43
2019-03-27T02:52:50.677Z,23.43
2019-03-27T02:57:56.361Z,22.30
2019-03-27T03:03:01.675Z,25.87
2019-03-27T03:08:07.875Z,20.67
2019-03-27T03:13:13.074Z,23.03
2019-03-27T03:18:18.370Z,23.73
2019-03-27T03:23:23.529Z,24.23
2019-03-27T03:28:28.578Z,23.97
2019-03-27T03:33:34.135Z,18.83
2019-03-27T03:38:39.599Z,25.53
2019-03-27T03:43:44.866Z,18.60
2019-03-27T03:48:50.314Z,27.10
2019-03-27T03:53:57.145Z,21.83
2019-03-27T03:59:03.556Z,23.87
2019-03-27T04:04:11.158Z,23.57
2019-03-27T04:09:17.322Z,20.43
2019-03-27T04:14:22.830Z,26.07
2019-03-27T04:19:28.444Z,28.47
2019-03-27T04:24:34.895Z,29.40
2019-03-27T04:29:40.322Z,21.00
2019-03-27T04:34:47.513Z,23.50
2019-03-27T04:39:53.340Z,21.53
2019-03-27T04:44:58.926Z,24.97
2019-03-27T04:50:04.048Z,32.77
2019-03-27T04:55:10.238Z,25.40
2019-03-27T05:00:16.127Z,26.10
2019-03-27T05:05:21.573Z,23.00
2019-03-27T05:10:28.216Z,24.43
2019-03-27T05:15:33.667Z,24.07
2019-03-27T05:20:38.828Z,23.27
2019-03-27T05:25:46.091Z,23.80
2019-03-27T05:30:53.165Z,21.75
2019-03-27T05:35:59.548Z,28.90
2019-03-27T05:41:05.141Z,22.17
2019-03-27T05:46:10.733Z,25.73
2019-03-27T05:51:16.089Z,23.60
2019-03-27T05:56:22.169Z,25.13
2019-03-27T06:01:28.044Z,25.97
2019-03-27T06:06:33.480Z,26.10
2019-03-27T06:11:42.075Z,30.37
2019-03-27T06:16:47.886Z,21.27
2019-03-27T06:21:53.010Z,20.17
2019-03-27T06:26:59.786Z,28.90
2019-03-27T06:32:05.222Z,19.93
2019-03-27T06:37:10.629Z,24.63
2019-03-27T06:42:16.386Z,33.83
2019-03-27T06:47:21.715Z,26.27
2019-03-27T06:52:26.949Z,36.17
2019-03-27T06:57:32.335Z,28.67
2019-03-27T07:02:37.240Z,50.30
2019-03-27T07:07:44.225Z,48.17
2019-03-27T07:12:49.424Z,42.20
2019-03-27T07:17:54.719Z,30.57
2019-03-27T07:23:00.067Z,31.07
2019-03-27T07:28:05.529Z,31.93
2019-03-27T07:33:10.920Z,31.30
2019-03-27T07:38:16.498Z,30.68
2019-03-27T07:43:21.692Z,33.45
2019-03-27T07:48:27.377Z,34.93
2019-03-27T07:53:32.996Z,39.37
2019-03-27T07:58:38.721Z,34.57
2019-03-27T08:36:55.397Z,36.00
2019-03-27T09:08:27.050Z,27.07
2019-03-27T09:13:48.353Z,32.95
2019-03-27T13:00:37.951Z,3.90
2019-03-27T13:05:44.050Z,3.53
2019-03-27T13:10:52.273Z,5.03
2019-03-27T13:16:07.434Z,4.70
2019-03-27T13:21:26.178Z,5.70
2019-03-27T13:26:25.081Z,8.10
2019-03-27T13:31:39.054Z,10.00
2019-03-27T13:36:48.457Z,10.60
2019-03-27T13:42:18.638Z,5.17
2019-03-27T13:47:40.498Z,8.65
2019-03-27T13:53:09.376Z,15.77
2019-03-27T13:58:20.374Z,9.03
2019-03-27T14:15:33.943Z,7.30
2019-03-27T14:20:40.669Z,6.27
2019-03-27T14:25:55.487Z,8.20
2019-03-27T14:31:20.960Z,7.30
2019-03-27T14:37:14.512Z,7.70
2019-03-27T14:42:23.224Z,8.87
2019-03-27T14:47:28.876Z,11.47
2019-03-27T14:52:37.789Z,13.30
2019-03-27T14:57:57.114Z,9.10
2019-03-27T15:03:05.960Z,12.17
2019-03-27T15:08:19.142Z,12.53
2019-03-27T15:13:24.949Z,10.03
2019-03-27T15:18:30.137Z,10.13
2019-03-27T15:23:36.537Z,8.70
2019-03-27T15:28:42.529Z,8.30
2019-03-27T15:34:05.808Z,8.33
2019-03-27T15:39:19.157Z,12.97
2019-03-27T15:44:35.217Z,15.57
2019-03-27T15:49:48.683Z,20.37
2019-03-27T15:55:29.249Z,18.23
2019-03-27T16:06:34.358Z,13.50
2019-03-27T16:11:50.922Z,16.23
2019-03-27T16:17:13.607Z,12.13
2019-03-27T16:22:16.113Z,11.83
2019-03-27T16:27:38.426Z,12.97
2019-03-27T16:33:12.489Z,17.00
2019-03-27T16:38:40.054Z,12.90
2019-03-27T16:44:28.697Z,8.87
2019-03-27T16:49:34.526Z,11.57
2019-03-27T16:54:47.026Z,12.87
2019-03-27T17:00:00.986Z,11.33
2019-03-27T17:05:17.777Z,18.93
2019-03-27T17:10:23.173Z,10.23
2019-03-27T17:15:41.603Z,8.67
2019-03-27T17:20:47.559Z,9.90
2019-03-27T17:25:58.880Z,12.23
2019-03-27T17:31:06.298Z,8.63
2019-03-27T17:36:12.657Z,12.20
2019-03-27T17:41:22.365Z,13.57
2019-03-27T17:46:28.566Z,14.17
2019-03-27T17:51:34.943Z,14.67
2019-03-27T17:56:40.254Z,12.10
2019-03-27T18:01:44.987Z,12.23
2019-03-27T18:06:51.482Z,12.80
2019-03-27T18:12:04.665Z,14.07
2019-03-27T18:17:10.720Z,10.17
2019-03-27T18:22:18.649Z,13.60
2019-03-27T18:27:25.339Z,12.47
2019-03-27T18:32:38.154Z,14.07
2019-03-27T18:37:46.339Z,12.97
2019-03-27T18:42:51.907Z,13.33
2019-03-27T18:47:57.610Z,14.17
2019-03-27T18:53:02.863Z,11.93
2019-03-27T18:58:11.786Z,12.67
2019-03-27T19:03:17.271Z,18.90
2019-03-27T19:08:22.984Z,14.67
2019-03-27T19:13:28.988Z,13.90
2019-03-27T19:18:34.856Z,12.73
2019-03-27T19:23:42.975Z,20.13
2019-03-27T19:28:49.129Z,13.50
2019-03-27T19:33:56.414Z,12.77
2019-03-27T19:39:02.607Z,13.90
2019-03-27T19:44:08.680Z,11.20
2019-03-27T19:49:14.852Z,14.13
2019-03-27T19:54:26.988Z,13.20
2019-03-27T19:59:28.744Z,15.87
2019-03-27T20:04:35.428Z,15.43
2019-03-27T20:09:41.847Z,13.10
2019-03-27T20:14:47.419Z,18.37
2019-03-27T20:19:52.512Z,22.23
2019-03-27T20:24:58.799Z,13.20
2019-03-27T20:30:05.496Z,14.47
2019-03-27T20:35:11.338Z,18.63
2019-03-27T20:40:17.677Z,17.23
2019-03-27T20:45:23.532Z,13.10
2019-03-27T20:50:28.951Z,14.17
2019-03-27T20:55:37.483Z,12.80
2019-03-27T21:00:43.760Z,12.70
2019-03-27T21:05:49.475Z,11.37
2019-03-27T21:11:00.677Z,15.73
2019-03-27T21:16:06.363Z,12.33
2019-03-27T21:21:12.096Z,11.27
2019-03-27T21:26:17.683Z,13.90
2019-03-27T21:31:23.418Z,12.90
2019-03-27T21:36:29.469Z,18.83
2019-03-27T21:41:34.908Z,14.73
2019-03-27T21:46:41.056Z,18.00
2019-03-27T21:51:46.907Z,18.10
2019-03-27T21:56:53.494Z,16.47
2019-03-27T22:02:12.017Z,22.87
2019-03-27T22:07:19.366Z,20.40
2019-03-27T22:12:24.130Z,16.90
2019-03-27T22:17:29.270Z,16.23
2019-03-27T22:22:35.128Z,17.73
2019-03-27T22:27:40.721Z,16.07
2019-03-27T22:32:48.823Z,16.20
2019-03-27T22:37:54.497Z,16.23
2019-03-27T22:43:00.074Z,19.87
2019-03-27T22:48:07.638Z,17.70
2019-03-27T22:53:14.874Z,17.55
2019-03-27T22:58:20.240Z,19.00
2019-03-27T23:03:25.814Z,16.57
2019-03-27T23:08:31.679Z,19.07
2019-03-27T23:13:36.942Z,14.30
2019-03-27T23:18:42.323Z,14.60
2019-03-27T23:23:47.703Z,24.43
2019-03-27T23:28:55.475Z,21.37
2019-03-27T23:34:01.220Z,21.43
2019-03-27T23:39:09.275Z,20.80
2019-03-27T23:44:14.446Z,22.27
2019-03-27T23:49:20.952Z,19.37
2019-03-27T23:54:26.018Z,19.47
2019-03-27T23:59:30.996Z,17.07
